EmailTwitter


Surface observations / United Kingdom / EGLC

Regions: Quebec | Canada | USA | Europe | France | UK | Elsewhere
Station
Display
Info & Location for EGLC | Help decoding METAR

Weather Conditions observed on 2018/09/21 at 16:50 UTC at LONDON CITY AIRP, UK (EGLC)

Sky conditions: variable clouds.

Temperature: 16.0 Celsius.

Dewpoint: 7.0 Celsius.

Relative Humidity: 55%

Windchill Factor: 14.

Windchill Factor (Gusts): 13.

Winds: West-southwest at 41 km/h or 22 knots.

Gust: 63 km/h or 34 knots.

Mean Sea level Pressure: 101.20 kilopascals.

Horizontal visibility: 6.21 statute miles or 9.94 kilometers.

Coded METAR:

EGLC 211650Z AUTO 25022G34KT 9999 SCT042 SCT049 16/07 Q1012=